sensor_id;sensor_type;location;lat;lon;timestamp;pressure;altitude;pressure_sealevel;temperature;humidity
55070;BME280;40967;52.070;8.596;2023-05-01T00:00:07;100797.06;;;8.10;61.96
55070;BME280;40967;52.070;8.596;2023-05-01T00:02:34;100806.25;;;8.09;62.52
55070;BME280;40967;52.070;8.596;2023-05-01T00:04:59;100802.16;;;8.06;62.51
55070;BME280;40967;52.070;8.596;2023-05-01T00:07:25;100792.91;;;8.02;62.28
55070;BME280;40967;52.070;8.596;2023-05-01T00:09:53;100799.38;;;8.01;62.33
55070;BME280;40967;52.070;8.596;2023-05-01T00:12:18;100787.19;;;7.99;62.32
55070;BME280;40967;52.070;8.596;2023-05-01T00:14:44;100782.50;;;7.94;62.38
55070;BME280;40967;52.070;8.596;2023-05-01T00:17:09;100783.81;;;7.92;62.59
55070;BME280;40967;52.070;8.596;2023-05-01T00:19:35;100781.84;;;7.87;62.58
55070;BME280;40967;52.070;8.596;2023-05-01T00:22:00;100777.69;;;7.80;63.33
55070;BME280;40967;52.070;8.596;2023-05-01T00:24:26;100780.06;;;7.76;62.82
55070;BME280;40967;52.070;8.596;2023-05-01T00:26:51;100779.41;;;7.69;63.50
55070;BME280;40967;52.070;8.596;2023-05-01T00:29:17;100776.94;;;7.68;63.80
55070;BME280;40967;52.070;8.596;2023-05-01T00:31:42;100766.84;;;7.63;63.36
55070;BME280;40967;52.070;8.596;2023-05-01T00:34:08;100776.59;;;7.64;63.73
55070;BME280;40967;52.070;8.596;2023-05-01T00:36:34;100775.69;;;7.59;63.41
55070;BME280;40967;52.070;8.596;2023-05-01T00:39:00;100776.75;;;7.58;63.18
55070;BME280;40967;52.070;8.596;2023-05-01T00:41:26;100772.09;;;7.53;64.08
55070;BME280;40967;52.070;8.596;2023-05-01T00:43:51;100771.25;;;7.53;63.89
55070;BME280;40967;52.070;8.596;2023-05-01T00:46:17;100766.34;;;7.50;63.46
55070;BME280;40967;52.070;8.596;2023-05-01T00:48:43;100764.72;;;7.49;63.78
55070;BME280;40967;52.070;8.596;2023-05-01T00:51:12;100759.47;;;7.42;63.74
55070;BME280;40967;52.070;8.596;2023-05-01T00:53:39;100765.59;;;7.38;64.21
55070;BME280;40967;52.070;8.596;2023-05-01T00:56:06;100758.44;;;7.32;64.34
55070;BME280;40967;52.070;8.596;2023-05-01T00:58:31;100755.16;;;7.30;64.26
55070;BME280;40967;52.070;8.596;2023-05-01T01:00:57;100749.22;;;7.28;64.17
55070;BME280;40967;52.070;8.596;2023-05-01T01:03:22;100746.44;;;7.23;64.79
55070;BME280;40967;52.070;8.596;2023-05-01T01:05:58;100742.41;;;7.25;64.62
55070;BME280;40967;52.070;8.596;2023-05-01T01:08:29;100730.25;;;7.23;64.43
55070;BME280;40967;52.070;8.596;2023-05-01T01:11:08;100734.22;;;7.20;63.81
55070;BME280;40967;52.070;8.596;2023-05-01T01:13:43;100733.91;;;7.17;64.72
55070;BME280;40967;52.070;8.596;2023-05-01T01:16:24;100724.63;;;7.13;63.96
55070;BME280;40967;52.070;8.596;2023-05-01T01:18:59;100720.81;;;7.09;65.08
55070;BME280;40967;52.070;8.596;2023-05-01T01:21:37;100720.81;;;7.09;64.64
55070;BME280;40967;52.070;8.596;2023-05-01T01:27:00;100719.97;;;7.08;64.06
55070;BME280;40967;52.070;8.596;2023-05-01T01:35:02;100713.47;;;6.93;65.23
55070;BME280;40967;52.070;8.596;2023-05-01T01:37:41;100711.72;;;6.86;64.32
55070;BME280;40967;52.070;8.596;2023-05-01T01:40:13;100706.81;;;6.83;65.06
55070;BME280;40967;52.070;8.596;2023-05-01T01:42:51;100710.59;;;6.82;64.95
55070;BME280;40967;52.070;8.596;2023-05-01T01:45:26;100711.88;;;6.80;64.60
55070;BME280;40967;52.070;8.596;2023-05-01T01:47:53;100701.91;;;6.80;65.18
55070;BME280;40967;52.070;8.596;2023-05-01T01:50:23;100698.97;;;6.82;64.90
55070;BME280;40967;52.070;8.596;2023-05-01T01:52:50;100700.59;;;6.83;64.32
55070;BME280;40967;52.070;8.596;2023-05-01T01:55:24;100689.03;;;6.82;64.30
55070;BME280;40967;52.070;8.596;2023-05-01T01:57:52;100686.56;;;6.81;64.61
55070;BME280;40967;52.070;8.596;2023-05-01T02:00:19;100681.63;;;6.78;64.58
55070;BME280;40967;52.070;8.596;2023-05-01T02:02:46;100672.25;;;6.80;64.42
55070;BME280;40967;52.070;8.596;2023-05-01T02:05:14;100670.84;;;6.78;64.98
55070;BME280;40967;52.070;8.596;2023-05-01T02:07:41;100671.69;;;6.78;64.87
55070;BME280;40967;52.070;8.596;2023-05-01T02:10:08;100668.66;;;6.75;64.66
55070;BME280;40967;52.070;8.596;2023-05-01T02:12:36;100670.84;;;6.78;64.84
55070;BME280;40967;52.070;8.596;2023-05-01T02:15:03;100661.03;;;6.72;64.52
55070;BME280;40967;52.070;8.596;2023-05-01T02:17:31;100667.09;;;6.79;65.05
55070;BME280;40967;52.070;8.596;2023-05-01T02:19:57;100664.66;;;6.77;64.80
55070;BME280;40967;52.070;8.596;2023-05-01T02:22:24;100657.63;;;6.76;64.23
55070;BME280;40967;52.070;8.596;2023-05-01T02:24:52;100657.63;;;6.76;64.32
55070;BME280;40967;52.070;8.596;2023-05-01T02:27:36;100656.56;;;6.77;65.07
55070;BME280;40967;52.070;8.596;2023-05-01T02:30:03;100656.44;;;6.72;64.68
55070;BME280;40967;52.070;8.596;2023-05-01T02:32:29;100663.75;;;6.72;64.63
55070;BME280;40967;52.070;8.596;2023-05-01T02:34:56;100656.09;;;6.69;64.88
55070;BME280;40967;52.070;8.596;2023-05-01T02:37:21;100644.69;;;6.62;65.24
55070;BME280;40967;52.070;8.596;2023-05-01T02:39:47;100645.97;;;6.59;65.26
55070;BME280;40967;52.070;8.596;2023-05-01T02:42:15;100635.19;;;6.59;64.71
55070;BME280;40967;52.070;8.596;2023-05-01T02:45:13;100633.06;;;6.61;65.41
55070;BME280;40967;52.070;8.596;2023-05-01T02:47:37;100628.16;;;6.58;64.96
55070;BME280;40967;52.070;8.596;2023-05-01T02:50:04;100625.81;;;6.62;65.24
55070;BME280;40967;52.070;8.596;2023-05-01T02:52:30;100631.19;;;6.62;64.42
55070;BME280;40967;52.070;8.596;2023-05-01T02:54:56;100632.00;;;6.62;64.71
55070;BME280;40967;52.070;8.596;2023-05-01T02:57:22;100622.78;;;6.58;64.62
55070;BME280;40967;52.070;8.596;2023-05-01T02:59:47;100623.22;;;6.55;64.27
55070;BME280;40967;52.070;8.596;2023-05-01T03:02:13;100608.03;;;6.49;64.93
55070;BME280;40967;52.070;8.596;2023-05-01T03:04:40;100617.50;;;6.52;65.21
55070;BME280;40967;52.070;8.596;2023-05-01T03:07:06;100608.63;;;6.51;65.09
55070;BME280;40967;52.070;8.596;2023-05-01T03:09:32;100616.13;;;6.49;65.11
55070;BME280;40967;52.070;8.596;2023-05-01T03:11:57;100605.81;;;6.46;65.17
55070;BME280;40967;52.070;8.596;2023-05-01T03:14:23;100603.59;;;6.43;65.08
55070;BME280;40967;52.070;8.596;2023-05-01T03:16:49;100595.75;;;6.42;65.16
55070;BME280;40967;52.070;8.596;2023-05-01T03:19:14;100594.94;;;6.41;65.39
55070;BME280;40967;52.070;8.596;2023-05-01T03:21:40;100600.31;;;6.41;65.40
55070;BME280;40967;52.070;8.596;2023-05-01T03:24:06;100589.00;;;6.39;65.25
55070;BME280;40967;52.070;8.596;2023-05-01T03:26:34;100584.63;;;6.38;65.25
55070;BME280;40967;52.070;8.596;2023-05-01T03:29:00;100591.09;;;6.37;65.57
55070;BME280;40967;52.070;8.596;2023-05-01T03:31:25;100587.81;;;6.35;65.35
55070;BME280;40967;52.070;8.596;2023-05-01T03:33:50;100584.53;;;6.33;65.30
55070;BME280;40967;52.070;8.596;2023-05-01T03:36:16;100585.63;;;6.32;65.18
55070;BME280;40967;52.070;8.596;2023-05-01T03:38:41;100579.06;;;6.28;65.83
55070;BME280;40967;52.070;8.596;2023-05-01T03:41:07;100575.88;;;6.31;64.84
55070;BME280;40967;52.070;8.596;2023-05-01T03:43:32;100574.84;;;6.32;65.49
55070;BME280;40967;52.070;8.596;2023-05-01T03:45:58;100565.59;;;6.28;65.31
55070;BME280;40967;52.070;8.596;2023-05-01T03:48:24;100560.44;;;6.27;65.28
55070;BME280;40967;52.070;8.596;2023-05-01T03:50:52;100563.13;;;6.27;65.38
55070;BME280;40967;52.070;8.596;2023-05-01T03:53:18;100556.44;;;6.29;65.25
55070;BME280;40967;52.070;8.596;2023-05-01T03:55:43;100554.22;;;6.26;65.36
55070;BME280;40967;52.070;8.596;2023-05-01T03:58:09;100546.88;;;6.22;65.32
55070;BME280;40967;52.070;8.596;2023-05-01T04:00:35;100552.25;;;6.22;66.02
55070;BME280;40967;52.070;8.596;2023-05-01T04:03:01;100555.66;;;6.17;65.31
55070;BME280;40967;52.070;8.596;2023-05-01T04:05:26;100551.59;;;6.15;66.14
55070;BME280;40967;52.070;8.596;2023-05-01T04:07:52;100548.56;;;6.11;66.06
55070;BME280;40967;52.070;8.596;2023-05-01T04:10:17;100560.47;;;6.15;66.11
55070;BME280;40967;52.070;8.596;2023-05-01T04:12:43;100539.31;;;6.07;65.58
55070;BME280;40967;52.070;8.596;2023-05-01T04:15:08;100560.72;;;6.14;65.87
55070;BME280;40967;52.070;8.596;2023-05-01T04:17:35;100559.31;;;6.11;66.16
55070;BME280;40967;52.070;8.596;2023-05-01T04:20:01;100552.53;;;6.09;65.86
55070;BME280;40967;52.070;8.596;2023-05-01T04:22:26;100555.22;;;6.09;65.98
55070;BME280;40967;52.070;8.596;2023-05-01T04:24:52;100560.38;;;6.10;66.29
55070;BME280;40967;52.070;8.596;2023-05-01T04:27:18;100553.94;;;6.11;65.98
55070;BME280;40967;52.070;8.596;2023-05-01T04:29:44;100556.63;;;6.11;65.92
55070;BME280;40967;52.070;8.596;2023-05-01T04:32:09;100554.19;;;6.10;66.65
55070;BME280;40967;52.070;8.596;2023-05-01T04:34:35;100547.97;;;6.09;66.70
55070;BME280;40967;52.070;8.596;2023-05-01T04:37:00;100542.59;;;6.09;66.32
55070;BME280;40967;52.070;8.596;2023-05-01T04:39:27;100539.88;;;6.09;66.13
55070;BME280;40967;52.070;8.596;2023-05-01T04:41:52;100540.94;;;6.08;66.86
55070;BME280;40967;52.070;8.596;2023-05-01T04:44:18;100536.38;;;6.09;66.13
55070;BME280;40967;52.070;8.596;2023-05-01T04:46:43;100532.97;;;6.13;67.05
55070;BME280;40967;52.070;8.596;2023-05-01T04:49:09;100529.78;;;6.16;66.82
55070;BME280;40967;52.070;8.596;2023-05-01T04:51:34;100532.81;;;6.20;66.82
55070;BME280;40967;52.070;8.596;2023-05-01T04:54:00;100525.00;;;6.18;66.58
55070;BME280;40967;52.070;8.596;2023-05-01T04:56:25;100529.97;;;6.26;66.36
55070;BME280;40967;52.070;8.596;2023-05-01T04:58:51;100527.88;;;6.28;66.50
55070;BME280;40967;52.070;8.596;2023-05-01T05:01:16;100529.81;;;6.33;66.19
55070;BME280;40967;52.070;8.596;2023-05-01T05:03:42;100525.59;;;6.37;65.98
55070;BME280;40967;52.070;8.596;2023-05-01T05:06:07;100526.75;;;6.41;65.92
55070;BME280;40967;52.070;8.596;2023-05-01T05:08:32;100523.56;;;6.44;65.87
55070;BME280;40967;52.070;8.596;2023-05-01T05:10:59;100530.91;;;6.48;66.20
55070;BME280;40967;52.070;8.596;2023-05-01T05:13:25;100528.81;;;6.50;66.03
55070;BME280;40967;52.070;8.596;2023-05-01T05:15:51;100527.25;;;6.54;66.13
55070;BME280;40967;52.070;8.596;2023-05-01T05:18:16;100533.06;;;6.63;65.92
55070;BME280;40967;52.070;8.596;2023-05-01T05:20:41;100527.19;;;6.66;66.32
55070;BME280;40967;52.070;8.596;2023-05-01T05:23:07;100523.19;;;6.68;66.45
55070;BME280;40967;52.070;8.596;2023-05-01T05:25:32;100530.88;;;6.76;66.59
55070;BME280;40967;52.070;8.596;2023-05-01T05:27:58;100523.69;;;6.82;66.46
55070;BME280;40967;52.070;8.596;2023-05-01T05:30:25;100523.44;;;6.83;66.49
55070;BME280;40967;52.070;8.596;2023-05-01T05:32:50;100518.47;;;6.92;66.24
55070;BME280;40967;52.070;8.596;2023-05-01T05:35:16;100512.81;;;6.93;66.35
55070;BME280;40967;52.070;8.596;2023-05-01T05:37:42;100518.38;;;7.04;66.76
55070;BME280;40967;52.070;8.596;2023-05-01T05:40:08;100514.94;;;7.08;67.03
55070;BME280;40967;52.070;8.596;2023-05-01T05:42:33;100516.75;;;7.19;66.87
55070;BME280;40967;52.070;8.596;2023-05-01T05:44:59;100508.72;;;7.24;66.95
55070;BME280;40967;52.070;8.596;2023-05-01T05:47:24;100516.94;;;7.34;66.54
55070;BME280;40967;52.070;8.596;2023-05-01T05:49:50;100517.34;;;7.43;66.81
55070;BME280;40967;52.070;8.596;2023-05-01T05:52:15;100509.56;;;7.46;66.42
55070;BME280;40967;52.070;8.596;2023-05-01T05:54:41;100511.09;;;7.59;66.08
55070;BME280;40967;52.070;8.596;2023-05-01T05:57:07;100503.88;;;7.64;66.54
55070;BME280;40967;52.070;8.596;2023-05-01T05:59:33;100502.91;;;7.75;66.37
55070;BME280;40967;52.070;8.596;2023-05-01T06:01:58;100503.03;;;7.85;66.37
55070;BME280;40967;52.070;8.596;2023-05-01T06:04:24;100504.50;;;7.93;66.39
55070;BME280;40967;52.070;8.596;2023-05-01T06:06:50;100501.63;;;8.04;66.52
55070;BME280;40967;52.070;8.596;2023-05-01T06:09:15;100492.00;;;8.14;65.90
55070;BME280;40967;52.070;8.596;2023-05-01T06:11:43;100489.94;;;8.21;66.38
55070;BME280;40967;52.070;8.596;2023-05-01T06:14:09;100501.19;;;8.34;65.64
55070;BME280;40967;52.070;8.596;2023-05-01T06:16:35;100488.53;;;8.40;65.74
55070;BME280;40967;52.070;8.596;2023-05-01T06:19:00;100501.41;;;8.54;65.36
55070;BME280;40967;52.070;8.596;2023-05-01T06:21:26;100503.09;;;8.65;65.11
55070;BME280;40967;52.070;8.596;2023-05-01T06:23:51;100491.88;;;8.78;64.63
55070;BME280;40967;52.070;8.596;2023-05-01T06:26:16;100493.63;;;8.94;64.28
55070;BME280;40967;52.070;8.596;2023-05-01T06:28:47;100485.03;;;9.07;63.50
55070;BME280;40967;52.070;8.596;2023-05-01T06:31:12;100487.03;;;9.22;63.30
55070;BME280;40967;52.070;8.596;2023-05-01T06:33:37;100486.84;;;9.39;63.38
55070;BME280;40967;52.070;8.596;2023-05-01T06:36:03;100478.03;;;9.58;62.36
55070;BME280;40967;52.070;8.596;2023-05-01T06:38:28;100487.88;;;9.79;62.35
55070;BME280;40967;52.070;8.596;2023-05-01T06:40:54;100487.16;;;9.99;61.88
55070;BME280;40967;52.070;8.596;2023-05-01T06:43:20;100478.53;;;10.17;61.38
55070;BME280;40967;52.070;8.596;2023-05-01T06:45:45;100488.06;;;10.35;60.75
55070;BME280;40967;52.070;8.596;2023-05-01T06:48:10;100476.16;;;10.51;60.25
55070;BME280;40967;52.070;8.596;2023-05-01T06:50:36;100479.44;;;10.73;59.86
55070;BME280;40967;52.070;8.596;2023-05-01T06:53:01;100480.22;;;10.93;59.70
55070;BME280;40967;52.070;8.596;2023-05-01T06:55:27;100477.22;;;11.15;59.18
55070;BME280;40967;52.070;8.596;2023-05-01T06:58:00;100477.47;;;11.33;59.02
55070;BME280;40967;52.070;8.596;2023-05-01T07:00:25;100474.16;;;11.52;58.40
55070;BME280;40967;52.070;8.596;2023-05-01T07:02:51;100473.03;;;11.68;58.20
55070;BME280;40967;52.070;8.596;2023-05-01T07:05:16;100476.78;;;11.82;57.26
55070;BME280;40967;52.070;8.596;2023-05-01T07:07:42;100472.09;;;11.97;56.86
55070;BME280;40967;52.070;8.596;2023-05-01T07:10:08;100467.94;;;12.10;56.57
55070;BME280;40967;52.070;8.596;2023-05-01T07:12:34;100466.72;;;12.31;56.41
55070;BME280;40967;52.070;8.596;2023-05-01T07:14:59;100466.09;;;12.44;56.32
55070;BME280;40967;52.070;8.596;2023-05-01T07:17:25;100466.47;;;12.66;55.98
55070;BME280;40967;52.070;8.596;2023-05-01T07:19:50;100464.44;;;12.82;54.89
55070;BME280;40967;52.070;8.596;2023-05-01T07:22:16;100467.84;;;12.97;54.45
55070;BME280;40967;52.070;8.596;2023-05-01T07:24:41;100460.66;;;13.11;53.97
55070;BME280;40967;52.070;8.596;2023-05-01T07:27:07;100459.91;;;13.29;54.00
55070;BME280;40967;52.070;8.596;2023-05-01T07:29:36;100444.75;;;13.47;53.66
55070;BME280;40967;52.070;8.596;2023-05-01T07:32:02;100458.31;;;13.76;53.05
55070;BME280;40967;52.070;8.596;2023-05-01T07:34:29;100457.50;;;13.94;52.58
55070;BME280;40967;52.070;8.596;2023-05-01T07:36:55;100465.44;;;14.14;52.05
55070;BME280;40967;52.070;8.596;2023-05-01T07:39:21;100434.16;;;14.25;52.01
55070;BME280;40967;52.070;8.596;2023-05-01T07:41:46;100438.38;;;14.54;51.58
55070;BME280;40967;52.070;8.596;2023-05-01T07:44:12;100445.56;;;14.82;51.19
55070;BME280;40967;52.070;8.596;2023-05-01T07:46:37;100439.34;;;15.09;50.91
55070;BME280;40967;52.070;8.596;2023-05-01T07:49:03;100440.13;;;15.42;50.48
55070;BME280;40967;52.070;8.596;2023-05-01T07:51:29;100438.47;;;15.81;50.11
55070;BME280;40967;52.070;8.596;2023-05-01T07:53:55;100443.88;;;16.22;49.32
55070;BME280;40967;52.070;8.596;2023-05-01T07:56:20;100439.22;;;16.58;48.74
55070;BME280;40967;52.070;8.596;2023-05-01T07:58:45;100438.47;;;16.88;47.55
55070;BME280;40967;52.070;8.596;2023-05-01T08:01:11;100434.41;;;17.17;46.79
55070;BME280;40967;52.070;8.596;2023-05-01T08:03:36;100436.31;;;17.38;46.30
55070;BME280;40967;52.070;8.596;2023-05-01T08:06:02;100428.69;;;17.66;45.52
55070;BME280;40967;52.070;8.596;2023-05-01T08:08:27;100435.53;;;17.85;44.99
55070;BME280;40967;52.070;8.596;2023-05-01T08:10:53;100426.66;;;17.97;45.16
55070;BME280;40967;52.070;8.596;2023-05-01T08:13:18;100428.31;;;18.15;45.34
55070;BME280;40967;52.070;8.596;2023-05-01T08:15:47;100430.00;;;18.42;44.48
55070;BME280;40967;52.070;8.596;2023-05-01T08:18:13;100430.75;;;18.68;43.71
55070;BME280;40967;52.070;8.596;2023-05-01T08:20:47;100429.59;;;18.94;43.14
55070;BME280;40967;52.070;8.596;2023-05-01T08:23:14;100422.56;;;19.31;42.99
55070;BME280;40967;52.070;8.596;2023-05-01T08:25:40;100419.78;;;19.69;42.40
55070;BME280;40967;52.070;8.596;2023-05-01T08:28:05;100421.03;;;20.00;41.69
55070;BME280;40967;52.070;8.596;2023-05-01T08:30:30;100424.03;;;20.16;41.21
55070;BME280;40967;52.070;8.596;2023-05-01T08:32:56;100415.91;;;20.40;41.09
55070;BME280;40967;52.070;8.596;2023-05-01T08:35:21;100414.66;;;20.70;40.44
55070;BME280;40967;52.070;8.596;2023-05-01T08:37:47;100418.53;;;20.90;39.98
55070;BME280;40967;52.070;8.596;2023-05-01T08:40:13;100415.38;;;21.00;39.48
55070;BME280;40967;52.070;8.596;2023-05-01T08:42:39;100407.47;;;21.10;39.16
55070;BME280;40967;52.070;8.596;2023-05-01T08:45:07;100407.00;;;21.20;39.02
55070;BME280;40967;52.070;8.596;2023-05-01T08:47:35;100412.78;;;21.27;38.52
55070;BME280;40967;52.070;8.596;2023-05-01T08:50:09;100409.91;;;21.36;38.68
55070;BME280;40967;52.070;8.596;2023-05-01T08:52:41;100413.50;;;21.49;38.47
55070;BME280;40967;52.070;8.596;2023-05-01T08:55:10;100406.91;;;21.41;38.63
55070;BME280;40967;52.070;8.596;2023-05-01T08:57:36;100410.38;;;21.50;38.54
55070;BME280;40967;52.070;8.596;2023-05-01T09:00:02;100399.69;;;21.61;38.36
55070;BME280;40967;52.070;8.596;2023-05-01T09:02:30;100401.75;;;21.76;38.09
55070;BME280;40967;52.070;8.596;2023-05-01T09:04:59;100398.44;;;21.82;37.72
55070;BME280;40967;52.070;8.596;2023-05-01T09:07:25;100394.63;;;21.87;37.59
55070;BME280;40967;52.070;8.596;2023-05-01T09:09:50;100390.81;;;21.91;37.70
55070;BME280;40967;52.070;8.596;2023-05-01T09:12:24;100391.97;;;22.02;37.68
55070;BME280;40967;52.070;8.596;2023-05-01T09:14:51;100388.25;;;22.10;37.18
55070;BME280;40967;52.070;8.596;2023-05-01T09:17:19;100395.25;;;22.20;37.38
55070;BME280;40967;52.070;8.596;2023-05-01T09:19:46;100389.69;;;22.32;37.54
55070;BME280;40967;52.070;8.596;2023-05-01T09:22:12;100390.78;;;22.55;37.32
55070;BME280;40967;52.070;8.596;2023-05-01T09:24:37;100388.94;;;22.75;36.80
55070;BME280;40967;52.070;8.596;2023-05-01T09:27:04;100389.34;;;22.89;36.44
55070;BME280;40967;52.070;8.596;2023-05-01T09:29:38;100395.16;;;22.99;35.88
55070;BME280;40967;52.070;8.596;2023-05-01T09:32:23;100387.13;;;23.10;36.12
55070;BME280;40967;52.070;8.596;2023-05-01T09:34:50;100381.88;;;23.20;35.66
55070;BME280;40967;52.070;8.596;2023-05-01T09:37:29;100383.13;;;23.23;35.75
55070;BME280;40967;52.070;8.596;2023-05-01T09:40:12;100380.63;;;23.18;34.98
55070;BME280;40967;52.070;8.596;2023-05-01T09:42:51;100378.75;;;23.22;35.15
55070;BME280;40967;52.070;8.596;2023-05-01T09:45:17;100381.53;;;23.37;35.38
55070;BME280;40967;52.070;8.596;2023-05-01T09:47:47;100373.59;;;23.51;35.02
55070;BME280;40967;52.070;8.596;2023-05-01T09:50:33;100372.50;;;23.72;34.81
55070;BME280;40967;52.070;8.596;2023-05-01T09:53:03;100369.13;;;23.97;34.17
55070;BME280;40967;52.070;8.596;2023-05-01T09:55:31;100367.91;;;24.14;34.04
55070;BME280;40967;52.070;8.596;2023-05-01T09:57:56;100370.06;;;24.39;33.83
55070;BME280;40967;52.070;8.596;2023-05-01T10:00:23;100363.47;;;24.66;33.62
55070;BME280;40967;52.070;8.596;2023-05-01T10:02:49;100364.03;;;24.95;33.38
55070;BME280;40967;52.070;8.596;2023-05-01T10:05:16;100361.91;;;25.11;32.37
55070;BME280;40967;52.070;8.596;2023-05-01T10:07:59;100362.59;;;24.43;32.88
55070;BME280;40967;52.070;8.596;2023-05-01T10:10:25;100367.28;;;24.20;32.88
55070;BME280;40967;52.070;8.596;2023-05-01T10:12:51;100366.09;;;24.02;33.04
55070;BME280;40967;52.070;8.596;2023-05-01T10:15:16;100362.16;;;24.22;32.98
55070;BME280;40967;52.070;8.596;2023-05-01T10:17:43;100361.72;;;24.58;32.39
55070;BME280;40967;52.070;8.596;2023-05-01T10:20:09;100358.97;;;24.78;31.77
55070;BME280;40967;52.070;8.596;2023-05-01T10:22:37;100361.94;;;24.31;31.77
55070;BME280;40967;52.070;8.596;2023-05-01T10:25:05;100357.66;;;23.64;32.22
55070;BME280;40967;52.070;8.596;2023-05-01T10:27:33;100355.47;;;23.54;32.56
55070;BME280;40967;52.070;8.596;2023-05-01T10:30:04;100344.09;;;23.94;32.48
55070;BME280;40967;52.070;8.596;2023-05-01T10:32:30;100347.41;;;24.56;32.16
55070;BME280;40967;52.070;8.596;2023-05-01T10:35:14;100347.31;;;25.14;31.85
55070;BME280;40967;52.070;8.596;2023-05-01T10:37:45;100345.81;;;25.68;31.35
55070;BME280;40967;52.070;8.596;2023-05-01T10:45:42;100348.94;;;26.85;30.45
55070;BME280;40967;52.070;8.596;2023-05-01T10:48:08;100339.19;;;27.06;30.14
55070;BME280;40967;52.070;8.596;2023-05-01T10:50:34;100347.00;;;26.90;29.66
55070;BME280;40967;52.070;8.596;2023-05-01T10:55:38;100333.94;;;25.19;31.01
55070;BME280;40967;52.070;8.596;2023-05-01T10:58:08;100330.44;;;25.26;31.59
55070;BME280;40967;52.070;8.596;2023-05-01T11:00:36;100323.00;;;25.33;31.23
55070;BME280;40967;52.070;8.596;2023-05-01T11:06:06;100319.72;;;25.73;30.94
55070;BME280;40967;52.070;8.596;2023-05-01T11:08:33;100313.34;;;26.02;30.58
55070;BME280;40967;52.070;8.596;2023-05-01T11:14:03;100300.00;;;26.11;30.02
55070;BME280;40967;52.070;8.596;2023-05-01T11:21:44;100301.09;;;26.40;29.31
55070;BME280;40967;52.070;8.596;2023-05-01T11:24:11;100302.78;;;26.84;29.02
55070;BME280;40967;52.070;8.596;2023-05-01T11:26:40;100299.88;;;27.14;28.32
55070;BME280;40967;52.070;8.596;2023-05-01T11:29:08;100294.56;;;27.46;28.65
55070;BME280;40967;52.070;8.596;2023-05-01T11:31:35;100292.34;;;27.72;27.70
55070;BME280;40967;52.070;8.596;2023-05-01T11:34:00;100292.03;;;27.88;27.54
55070;BME280;40967;52.070;8.596;2023-05-01T11:36:26;100287.59;;;27.76;27.62
55070;BME280;40967;52.070;8.596;2023-05-01T11:38:53;100289.06;;;27.06;27.88
55070;BME280;40967;52.070;8.596;2023-05-01T11:41:23;100290.81;;;26.44;28.86
55070;BME280;40967;52.070;8.596;2023-05-01T11:43:49;100291.31;;;26.53;28.58
55070;BME280;40967;52.070;8.596;2023-05-01T11:46:29;100289.63;;;26.81;27.94
55070;BME280;40967;52.070;8.596;2023-05-01T11:48:56;100281.25;;;26.41;28.37
55070;BME280;40967;52.070;8.596;2023-05-01T11:51:22;100284.50;;;25.84;28.74
55070;BME280;40967;52.070;8.596;2023-05-01T11:54:06;100284.88;;;25.83;29.01
55070;BME280;40967;52.070;8.596;2023-05-01T11:56:36;100282.69;;;25.17;29.14
55070;BME280;40967;52.070;8.596;2023-05-01T11:59:12;100275.19;;;25.17;29.21
55070;BME280;40967;52.070;8.596;2023-05-01T12:01:44;100280.94;;;25.54;28.96
55070;BME280;40967;52.070;8.596;2023-05-01T12:04:11;100272.31;;;25.62;28.50
55070;BME280;40967;52.070;8.596;2023-05-01T12:06:42;100272.16;;;25.03;29.22
55070;BME280;40967;52.070;8.596;2023-05-01T12:09:10;100276.75;;;24.50;29.69
55070;BME280;40967;52.070;8.596;2023-05-01T12:11:40;100270.16;;;23.98;30.70
55070;BME280;40967;52.070;8.596;2023-05-01T12:14:06;100272.84;;;23.94;31.26
55070;BME280;40967;52.070;8.596;2023-05-01T12:16:33;100284.22;;;24.08;31.32
55070;BME280;40967;52.070;8.596;2023-05-01T12:18:58;100274.97;;;24.39;30.82
55070;BME280;40967;52.070;8.596;2023-05-01T12:21:24;100281.44;;;24.27;30.84
55070;BME280;40967;52.070;8.596;2023-05-01T12:23:52;100275.41;;;24.41;30.47
55070;BME280;40967;52.070;8.596;2023-05-01T12:26:22;100257.09;;;24.59;29.94
55070;BME280;40967;52.070;8.596;2023-05-01T12:29:08;100261.22;;;24.46;30.57
55070;BME280;40967;52.070;8.596;2023-05-01T12:31:34;100274.31;;;24.07;30.33
55070;BME280;40967;52.070;8.596;2023-05-01T12:34:05;100271.06;;;23.67;30.79
55070;BME280;40967;52.070;8.596;2023-05-01T12:36:32;100273.84;;;23.86;30.62
55070;BME280;40967;52.070;8.596;2023-05-01T12:39:09;100267.81;;;24.19;30.35
55070;BME280;40967;52.070;8.596;2023-05-01T12:41:46;100260.25;;;24.57;30.27
55070;BME280;40967;52.070;8.596;2023-05-01T12:44:18;100260.72;;;24.82;30.14
55070;BME280;40967;52.070;8.596;2023-05-01T12:46:52;100253.56;;;24.81;30.24
55070;BME280;40967;52.070;8.596;2023-05-01T12:49:19;100245.59;;;24.80;30.51
55070;BME280;40967;52.070;8.596;2023-05-01T12:51:46;100248.06;;;24.85;30.49
55070;BME280;40967;52.070;8.596;2023-05-01T12:54:32;100253.78;;;24.95;29.63
55070;BME280;40967;52.070;8.596;2023-05-01T12:57:14;100250.41;;;25.05;29.22
55070;BME280;40967;52.070;8.596;2023-05-01T12:59:44;100248.50;;;25.13;29.43
55070;BME280;40967;52.070;8.596;2023-05-01T13:02:14;100248.94;;;25.15;29.43
55070;BME280;40967;52.070;8.596;2023-05-01T13:04:45;100242.97;;;25.13;29.64
55070;BME280;40967;52.070;8.596;2023-05-01T13:07:17;100247.56;;;25.02;29.84
55070;BME280;40967;52.070;8.596;2023-05-01T13:09:56;100246.75;;;25.01;29.57
55070;BME280;40967;52.070;8.596;2023-05-01T13:12:27;100235.00;;;25.11;29.71
55070;BME280;40967;52.070;8.596;2023-05-01T13:14:53;100232.72;;;25.17;29.45
55070;BME280;40967;52.070;8.596;2023-05-01T13:17:27;100242.13;;;25.35;29.55
55070;BME280;40967;52.070;8.596;2023-05-01T13:19:57;100228.81;;;25.47;30.07
55070;BME280;40967;52.070;8.596;2023-05-01T13:22:37;100235.84;;;25.67;30.04
55070;BME280;40967;52.070;8.596;2023-05-01T13:25:08;100235.56;;;25.76;29.72